createdAt,value
2018-06-04T00:01:58.223Z,99.90
2018-06-04T00:11:50.577Z,99.90
2018-06-04T00:14:18.823Z,99.90
2018-06-04T00:19:15.008Z,99.90
2018-06-04T00:21:43.661Z,99.90
2018-06-04T00:24:11.904Z,99.90
2018-06-04T00:31:40.055Z,99.90
2018-06-04T00:36:36.400Z,99.90
2018-06-04T00:39:07.954Z,99.90
2018-06-04T00:49:01.723Z,99.90
2018-06-04T00:51:29.977Z,99.90
2018-06-04T00:53:58.214Z,99.90
2018-06-04T00:56:26.665Z,99.90
2018-06-04T00:58:54.877Z,99.90
2018-06-04T01:01:23.096Z,99.90
2018-06-04T01:03:51.281Z,99.90
2018-06-04T01:06:19.705Z,99.90
2018-06-04T01:11:15.908Z,99.90
2018-06-04T01:16:12.151Z,99.90
2018-06-04T01:18:40.382Z,99.90
2018-06-04T01:21:08.575Z,99.90
2018-06-04T01:23:36.828Z,99.90
2018-06-04T01:26:05.109Z,99.90
2018-06-04T01:33:29.262Z,99.90
2018-06-04T01:38:25.528Z,99.90
2018-06-04T01:40:53.766Z,99.90
2018-06-04T01:43:21.995Z,99.90
2018-06-04T01:45:50.237Z,99.90
2018-06-04T01:48:18.434Z,99.90
2018-06-04T01:50:46.784Z,99.90
2018-06-04T01:53:14.987Z,99.90
2018-06-04T01:55:43.229Z,99.90
2018-06-04T01:58:11.502Z,99.90
2018-06-04T02:00:39.852Z,99.90
2018-06-04T02:03:08.065Z,99.90
2018-06-04T02:08:04.223Z,99.90
2018-06-04T02:10:32.415Z,99.90
2018-06-04T02:13:00.604Z,99.90
2018-06-04T02:15:28.826Z,99.90
2018-06-04T02:22:52.893Z,99.90
2018-06-04T02:25:21.205Z,99.90
2018-06-04T02:30:17.372Z,99.90
2018-06-04T02:35:13.897Z,99.90
2018-06-04T02:40:10.154Z,99.90
2018-06-04T02:45:06.425Z,99.90
2018-06-04T02:47:34.685Z,99.90
2018-06-04T02:52:31.051Z,99.90
2018-06-04T02:55:03.112Z,99.90
2018-06-04T02:57:31.517Z,99.90
2018-06-04T03:00:00.424Z,99.90
2018-06-04T03:02:28.982Z,99.90
2018-06-04T03:04:57.261Z,99.90
2018-06-04T03:07:25.499Z,99.90
2018-06-04T03:09:54.374Z,99.90
2018-06-04T03:12:22.581Z,99.90
2018-06-04T03:21:24.468Z,99.90
2018-06-04T03:23:52.744Z,99.90
2018-06-04T03:28:48.923Z,99.90
2018-06-04T03:31:17.178Z,99.90
2018-06-04T03:33:45.763Z,99.90
2018-06-04T03:41:10.105Z,99.90
2018-06-04T03:43:38.344Z,99.90
2018-06-04T03:46:06.561Z,99.90
2018-06-04T03:48:34.793Z,99.90
2018-06-04T03:51:03.626Z,99.90
2018-06-04T03:53:31.846Z,99.90
2018-06-04T03:56:00.100Z,99.90
2018-06-04T04:00:56.594Z,99.90
2018-06-04T04:03:24.839Z,99.90
2018-06-04T04:05:53.170Z,99.90
2018-06-04T04:08:21.521Z,99.90
2018-06-04T04:10:49.687Z,99.90
2018-06-04T04:15:46.116Z,99.90
2018-06-04T04:18:14.305Z,99.90
2018-06-04T04:20:42.683Z,99.90
2018-06-04T04:23:10.890Z,99.90
2018-06-04T04:28:07.353Z,99.90
2018-06-04T04:30:35.591Z,99.90
2018-06-04T04:33:03.775Z,99.90
2018-06-04T04:35:31.973Z,99.90
2018-06-04T04:40:28.357Z,99.90
2018-06-04T04:42:56.788Z,99.90
2018-06-04T04:45:25.074Z,99.90
2018-06-04T04:47:53.264Z,99.90
2018-06-04T04:50:21.510Z,99.90
2018-06-04T04:52:49.691Z,99.90
2018-06-04T05:02:42.029Z,99.90
2018-06-04T05:07:38.263Z,99.90
2018-06-04T05:10:06.569Z,99.90
2018-06-04T05:12:34.765Z,99.90
2018-06-04T05:15:03.108Z,99.90
2018-06-04T05:19:59.576Z,99.90
2018-06-04T05:24:56.117Z,99.90
2018-06-04T05:27:24.388Z,99.90
2018-06-04T05:29:52.602Z,99.90
2018-06-04T05:32:20.987Z,99.90
2018-06-04T05:37:17.282Z,99.90
2018-06-04T05:39:45.475Z,99.90
2018-06-04T05:42:13.720Z,99.90
2018-06-04T05:44:42.009Z,99.90
2018-06-04T05:47:10.165Z,99.90
2018-06-04T05:49:38.728Z,99.90
2018-06-04T05:57:02.882Z,99.90
2018-06-04T05:59:31.120Z,99.90
2018-06-04T06:01:59.357Z,99.90
2018-06-04T06:06:55.740Z,99.90
2018-06-04T06:09:23.958Z,99.90
2018-06-04T06:14:20.245Z,99.90
2018-06-04T06:16:48.544Z,99.90
2018-06-04T06:24:13.134Z,99.90
2018-06-04T06:26:42.067Z,99.90
2018-06-04T06:29:10.412Z,99.90
2018-06-04T06:31:38.656Z,99.90
2018-06-04T06:36:34.995Z,99.90
2018-06-04T06:39:03.382Z,99.90
2018-06-04T06:41:31.680Z,99.90
2018-06-04T06:46:27.841Z,99.90
2018-06-04T06:51:24.176Z,99.90
2018-06-04T06:53:52.411Z,99.90
2018-06-04T06:56:20.641Z,99.90
2018-06-04T07:01:17.017Z,99.90
2018-06-04T07:03:45.320Z,99.90
2018-06-04T07:11:09.572Z,99.90
2018-06-04T07:13:37.826Z,99.90
2018-06-04T07:16:06.069Z,99.90
2018-06-04T07:18:34.351Z,99.90
2018-06-04T07:21:02.701Z,99.90
2018-06-04T07:25:59.077Z,99.90
2018-06-04T07:28:27.371Z,99.90
2018-06-04T07:38:19.962Z,99.90
2018-06-04T07:40:48.276Z,99.90
2018-06-04T07:43:16.484Z,99.90
2018-06-04T07:45:44.733Z,99.90
2018-06-04T07:48:12.961Z,99.90
2018-06-04T07:50:41.291Z,99.90
2018-06-04T07:55:37.519Z,99.90
2018-06-04T08:00:33.885Z,99.90
2018-06-04T08:05:30.219Z,99.90
2018-06-04T08:12:54.693Z,99.90
2018-06-04T08:15:22.907Z,99.90
2018-06-04T08:17:51.168Z,99.90
2018-06-04T08:20:19.531Z,99.90
2018-06-04T08:22:47.718Z,99.90
2018-06-04T08:25:15.950Z,99.90
2018-06-04T08:27:44.305Z,99.90
2018-06-04T08:32:40.683Z,99.90
2018-06-04T08:35:08.959Z,99.90
2018-06-04T08:40:05.185Z,99.90
2018-06-04T08:42:33.428Z,99.90
2018-06-04T08:45:01.684Z,99.90
2018-06-04T08:47:30.244Z,99.90
2018-06-04T08:49:58.508Z,99.90
2018-06-04T08:57:22.624Z,95.90
2018-06-04T08:59:50.849Z,98.00
2018-06-04T09:02:19.106Z,96.20
2018-06-04T09:04:47.343Z,97.20
2018-06-04T09:07:15.574Z,99.90
2018-06-04T09:09:43.786Z,99.90
2018-06-04T09:12:12.024Z,99.20
2018-06-04T09:17:08.521Z,97.70
2018-06-04T09:19:36.776Z,99.90
2018-06-04T09:22:04.980Z,96.70
2018-06-04T09:24:33.212Z,96.10
2018-06-04T09:27:01.429Z,97.20
2018-06-04T09:36:54.097Z,92.90
2018-06-04T09:41:50.362Z,92.90
2018-06-04T09:46:46.601Z,87.90
2018-06-04T09:49:14.856Z,90.00
2018-06-04T09:51:43.182Z,91.40
2018-06-04T09:54:11.923Z,89.00
2018-06-04T09:56:40.149Z,88.10
2018-06-04T09:59:08.552Z,86.10
2018-06-04T10:01:36.770Z,86.90
2018-06-04T10:09:01.399Z,81.30
2018-06-04T10:11:29.713Z,78.90
2018-06-04T10:13:58.000Z,78.00
2018-06-04T10:18:54.243Z,80.70
2018-06-04T10:23:50.431Z,77.50
2018-06-04T10:28:46.732Z,76.10
2018-06-04T10:31:14.941Z,72.50
2018-06-04T10:38:39.128Z,78.40
2018-06-04T10:43:35.363Z,76.10
2018-06-04T10:46:03.651Z,73.90
2018-06-04T10:50:59.886Z,70.90
2018-06-04T10:53:28.093Z,72.60
2018-06-04T10:55:56.314Z,72.40
2018-06-04T10:58:24.705Z,70.30
2018-06-04T11:00:52.974Z,72.00
2018-06-04T11:03:21.210Z,68.40
2018-06-04T11:05:49.433Z,68.50
2018-06-04T11:08:17.662Z,72.80
2018-06-04T11:10:45.864Z,70.40
2018-06-04T11:13:14.112Z,76.50
2018-06-04T11:15:42.344Z,76.30
2018-06-04T11:18:10.620Z,79.90
2018-06-04T11:20:38.807Z,75.80
2018-06-04T11:25:35.083Z,69.50
2018-06-04T11:30:31.269Z,72.70
2018-06-04T11:32:59.398Z,66.40
2018-06-04T11:37:55.589Z,65.20
2018-06-04T11:40:23.816Z,63.60
2018-06-04T11:42:53.154Z,64.90
2018-06-04T11:45:21.361Z,63.10
2018-06-04T11:47:49.593Z,59.60
2018-06-04T11:50:17.878Z,63.60
2018-06-04T11:52:46.100Z,60.40
2018-06-04T11:55:14.288Z,58.60
2018-06-04T11:57:43.453Z,61.60
2018-06-04T12:00:11.657Z,60.50
2018-06-04T12:07:35.770Z,55.50
2018-06-04T12:10:04.101Z,58.10
2018-06-04T12:12:32.300Z,59.20
2018-06-04T12:17:28.450Z,63.10
2018-06-04T12:19:56.645Z,66.00
2018-06-04T12:22:25.221Z,65.10
2018-06-04T12:24:53.499Z,60.70
2018-06-04T12:29:49.646Z,57.30
2018-06-04T12:32:17.841Z,58.20
2018-06-04T12:34:46.016Z,59.80
2018-06-04T12:39:43.204Z,58.90
2018-06-04T12:44:39.285Z,59.80
2018-06-04T12:47:07.496Z,58.60
2018-06-04T12:49:35.670Z,56.40
2018-06-04T12:52:04.244Z,56.90
2018-06-04T12:54:32.540Z,52.80
2018-06-04T12:57:00.781Z,53.60
2018-06-04T12:59:29.121Z,53.70
2018-06-04T13:01:57.347Z,50.70
2018-06-04T13:04:25.764Z,49.10
2018-06-04T13:11:49.970Z,47.90
2018-06-04T13:16:46.170Z,47.30
2018-06-04T13:19:14.434Z,48.00
2018-06-04T13:21:42.644Z,47.20
2018-06-04T13:24:10.904Z,45.50
2018-06-04T13:26:39.085Z,45.70
2018-06-04T13:31:35.321Z,45.40
2018-06-04T13:34:03.487Z,46.20
2018-06-04T13:36:31.664Z,46.80
2018-06-04T13:39:00.045Z,44.90
2018-06-04T13:41:28.220Z,46.40
2018-06-04T13:43:56.419Z,41.90
2018-06-04T13:46:25.088Z,47.00
2018-06-04T13:48:53.297Z,46.40
2018-06-04T13:51:21.529Z,44.30
2018-06-04T13:53:49.772Z,43.80
2018-06-04T13:56:18.090Z,42.00
2018-06-04T13:58:46.307Z,42.10
2018-06-04T14:01:14.545Z,40.40
2018-06-04T14:03:42.744Z,43.70
2018-06-04T14:06:10.941Z,41.20
2018-06-04T14:08:39.139Z,41.10
2018-06-04T14:11:07.416Z,39.30
2018-06-04T14:13:35.618Z,42.10
2018-06-04T14:16:03.838Z,40.70
2018-06-04T14:18:32.064Z,37.30
2018-06-04T14:21:00.227Z,40.70
2018-06-04T14:23:28.416Z,42.70
2018-06-04T14:25:56.680Z,43.10
2018-06-04T14:28:24.937Z,43.20
2018-06-04T14:30:53.218Z,45.00
2018-06-04T14:38:17.399Z,49.70
2018-06-04T14:40:45.627Z,47.50
2018-06-04T14:45:41.848Z,48.80
2018-06-04T14:48:10.106Z,49.70
2018-06-04T14:55:34.288Z,48.00
2018-06-04T14:58:02.693Z,50.60
2018-06-04T15:05:27.197Z,45.00
2018-06-04T15:07:55.424Z,46.90
2018-06-04T15:10:23.701Z,47.50
2018-06-04T15:15:19.934Z,46.30
2018-06-04T15:17:48.415Z,46.80
2018-06-04T15:20:16.670Z,47.10
2018-06-04T15:22:44.832Z,48.50
2018-06-04T16:49:39.100Z,52.20
2018-06-04T16:57:03.217Z,55.90
2018-06-04T16:59:31.459Z,55.80
2018-06-04T17:04:29.348Z,57.30
2018-06-04T17:06:58.523Z,57.20
2018-06-04T17:09:26.733Z,56.50
2018-06-04T17:11:55.089Z,57.30
2018-06-04T17:16:51.348Z,56.40
2018-06-04T17:21:47.628Z,59.10
2018-06-04T17:24:15.826Z,58.20
2018-06-04T17:26:44.070Z,57.70
2018-06-04T17:29:12.280Z,58.50
2018-06-04T17:31:40.577Z,59.30
2018-06-04T17:34:08.817Z,58.90
2018-06-04T17:39:07.259Z,63.00
2018-06-04T17:41:36.149Z,61.50
2018-06-04T17:44:04.520Z,63.30
2018-06-04T17:53:56.704Z,64.10
2018-06-04T17:58:53.176Z,66.10
2018-06-04T18:01:21.388Z,66.60
2018-06-04T18:11:14.320Z,75.60
2018-06-04T18:13:42.563Z,75.30
2018-06-04T18:18:38.804Z,77.50
2018-06-04T18:30:58.925Z,82.10
2018-06-04T18:33:27.179Z,83.40
2018-06-04T18:35:55.387Z,85.60
2018-06-04T18:38:23.608Z,86.10
2018-06-04T18:40:52.109Z,87.00
2018-06-04T18:43:20.456Z,88.70
2018-06-04T18:45:48.684Z,89.00
2018-06-04T18:50:44.857Z,90.20
2018-06-04T19:00:37.152Z,93.10
2018-06-04T19:03:05.431Z,93.90
2018-06-04T19:05:33.740Z,94.90
2018-06-04T19:08:02.117Z,95.20
2018-06-04T19:10:30.573Z,96.80
2018-06-04T19:12:58.813Z,97.10
2018-06-04T19:22:53.712Z,99.90
2018-06-04T19:25:22.063Z,99.90
2018-06-04T19:27:50.461Z,99.90
2018-06-04T19:30:18.728Z,99.90
2018-06-04T19:32:46.994Z,99.90
2018-06-04T19:35:15.876Z,99.90
2018-06-04T19:37:44.787Z,99.90
2018-06-04T19:40:13.061Z,99.90
2018-06-04T19:42:41.352Z,99.90
2018-06-04T19:45:10.117Z,99.90
2018-06-04T19:47:38.402Z,99.90
2018-06-04T19:50:06.653Z,99.90
2018-06-04T19:57:30.931Z,99.90
2018-06-04T20:00:00.322Z,99.90
2018-06-04T20:04:56.611Z,99.90
2018-06-04T20:07:24.801Z,99.90
2018-06-04T20:09:53.110Z,99.90
2018-06-04T20:12:21.559Z,99.90
2018-06-04T20:14:49.836Z,99.90
2018-06-04T20:17:18.389Z,99.90
2018-06-04T20:19:46.661Z,99.90
2018-06-04T20:22:14.892Z,99.90
2018-06-04T20:24:43.140Z,99.90
2018-06-04T20:27:11.428Z,99.90
2018-06-04T20:29:39.692Z,99.90
2018-06-04T20:32:08.073Z,99.90
2018-06-04T20:37:04.328Z,99.90
2018-06-04T20:39:32.580Z,99.90
2018-06-04T20:42:00.805Z,99.90
2018-06-04T20:44:29.005Z,99.90
2018-06-04T20:46:57.232Z,99.90
2018-06-04T20:51:53.424Z,99.90
2018-06-04T20:59:17.668Z,99.90
2018-06-04T21:01:45.961Z,99.90
2018-06-04T21:04:14.291Z,99.90
2018-06-04T21:06:42.524Z,99.90
2018-06-04T21:09:10.794Z,99.90
2018-06-04T21:11:39.021Z,99.90
2018-06-04T21:14:07.277Z,99.90
2018-06-04T21:16:35.468Z,99.90
2018-06-04T21:19:04.819Z,99.90
2018-06-04T21:21:33.032Z,99.90
2018-06-04T21:24:01.293Z,99.90
2018-06-04T21:26:29.502Z,99.90
2018-06-04T21:28:57.781Z,99.90
2018-06-04T21:31:26.147Z,99.90
2018-06-04T21:36:22.926Z,99.90
2018-06-04T21:38:51.325Z,99.90
2018-06-04T21:46:15.531Z,99.90
2018-06-04T21:48:48.116Z,99.90
2018-06-04T21:51:16.724Z,99.90
2018-06-04T21:56:13.017Z,99.90
2018-06-04T21:58:41.312Z,99.90
2018-06-04T22:03:37.580Z,99.90
2018-06-04T22:06:05.806Z,99.90
2018-06-04T22:11:01.954Z,99.90
2018-06-04T22:13:30.342Z,99.90
2018-06-04T22:15:58.571Z,99.90
2018-06-04T22:21:57.930Z,99.90
2018-06-04T22:24:26.215Z,99.90
2018-06-04T22:29:22.472Z,99.90
2018-06-04T22:31:50.756Z,99.90
2018-06-04T22:39:15.974Z,99.90
2018-06-04T22:41:44.350Z,99.90
2018-06-04T22:44:12.544Z,99.90
2018-06-04T22:46:40.801Z,99.90
2018-06-04T22:54:07.188Z,99.90
2018-06-04T22:56:35.481Z,99.90
2018-06-04T22:59:04.343Z,99.90
2018-06-04T23:04:00.568Z,99.90
2018-06-04T23:08:56.759Z,99.90
2018-06-04T23:11:25.012Z,99.90
2018-06-04T23:16:21.683Z,99.90
2018-06-04T23:18:49.953Z,99.90
2018-06-04T23:23:46.166Z,99.90
2018-06-04T23:28:42.445Z,99.90
2018-06-04T23:31:10.708Z,99.90
2018-06-04T23:33:38.979Z,99.90
2018-06-04T23:38:35.198Z,99.90
2018-06-04T23:42:32.731Z,99.90
2018-06-04T23:45:00.970Z,99.90
2018-06-04T23:47:29.272Z,99.90
2018-06-04T23:49:57.516Z,99.90
2018-06-04T23:52:25.824Z,99.90
2018-06-04T23:54:54.469Z,99.90
2018-06-04T23:59:50.617Z,99.90
